Time;durP1;ratioP1;P1;durP2;ratioP2;P2;SDS_P1;SDS_P2;PMS_P1;PMS_P2;Temp;Humidity;BMP_temperature;BMP_pressure;BME280_temperature;BME280_humidity;BME280_pressure;Samples;Min_cycle;Max_cycle;Signal;HPM_P1;HPM_P2
2023/10/06 00:00:35;;;;;;;14.20;9.20;;;;;;;11.99;100.00;101192.40;109608;1253;73060;-74
2023/10/06 00:03:06;;;;;;;23.40;10.20;;;;;;;12.02;100.00;101186.62;109650;1252;62484;-73
2023/10/06 00:05:33;;;;;;;17.60;9.60;;;;;;;12.04;100.00;101187.54;109575;1253;72080;-74
2023/10/06 00:08:04;;;;;;;15.60;9.60;;;;;;;12.06;100.00;101185.91;109611;1252;60438;-75
2023/10/06 00:10:32;;;;;;;18.50;10.00;;;;;;;12.03;100.00;101183.55;109621;1253;60187;-75
2023/10/06 00:13:03;;;;;;;17.50;9.90;;;;;;;12.02;100.00;101178.90;109639;1253;71843;-76
2023/10/06 00:15:43;;;;;;;19.10;9.70;;;;;;;12.00;100.00;101174.97;109680;1253;63699;-75
2023/10/06 00:18:19;;;;;;;20.00;9.80;;;;;;;11.98;100.00;101174.05;109598;1251;71568;-75
2023/10/06 00:20:49;;;;;;;16.90;9.50;;;;;;;11.95;100.00;101168.05;109596;1253;60481;-74
2023/10/06 00:23:21;;;;;;;16.40;9.50;;;;;;;11.92;100.00;101166.46;109639;1253;60090;-74
2023/10/06 00:25:51;;;;;;;16.30;9.20;;;;;;;11.90;100.00;101170.48;109648;1253;73082;-75
2023/10/06 00:28:19;;;;;;;15.90;10.00;;;;;;;11.87;100.00;101170.42;109651;1253;63740;-75
2023/10/06 00:30:48;;;;;;;19.40;10.10;;;;;;;11.86;100.00;101168.73;109600;1253;72774;-74
2023/10/06 00:33:15;;;;;;;16.20;10.10;;;;;;;11.82;100.00;101162.98;109536;1252;61675;-73
2023/10/06 00:35:44;;;;;;;19.30;9.70;;;;;;;11.78;100.00;101165.66;109541;1252;60032;-74
2023/10/06 00:38:17;;;;;;;19.40;9.90;;;;;;;11.74;100.00;101165.05;109603;1254;73015;-74
2023/10/06 00:40:51;;;;;;;17.40;10.50;;;;;;;11.71;100.00;101163.77;109643;1252;63813;-74
2023/10/06 00:43:34;;;;;;;19.40;11.40;;;;;;;11.69;100.00;101164.10;109613;1253;72700;-74
2023/10/06 00:46:07;;;;;;;19.90;9.90;;;;;;;11.66;100.00;101158.88;109583;1253;61799;-75
2023/10/06 00:48:44;;;;;;;20.30;10.60;;;;;;;11.64;100.00;101156.65;109537;1253;58408;-75
2023/10/06 00:51:41;;;;;;;15.10;9.40;;;;;;;11.62;100.00;101155.38;109643;1252;71969;-75
2023/10/06 00:54:04;;;;;;;21.30;10.90;;;;;;;11.59;100.00;101156.40;109658;1253;62516;-75
2023/10/06 00:56:31;;;;;;;14.40;9.30;;;;;;;11.56;100.00;101154.98;109614;1252;70987;-76
2023/10/06 00:59:04;;;;;;;21.00;10.10;;;;;;;11.53;100.00;101150.98;109575;1253;61774;-75
2023/10/06 01:01:34;;;;;;;15.20;9.60;;;;;;;11.47;100.00;101147.97;109635;1253;58733;-75
2023/10/06 01:04:06;;;;;;;13.40;8.80;;;;;;;11.42;100.00;101150.50;109626;1252;71509;-75
2023/10/06 01:06:36;;;;;;;15.20;9.60;;;;;;;11.38;100.00;101149.50;109663;1253;63548;-76
2023/10/06 01:09:15;;;;;;;12.90;8.10;;;;;;;11.35;100.00;101151.77;109612;1252;72659;-74
2023/10/06 01:11:43;;;;;;;13.50;9.20;;;;;;;11.32;100.00;101150.00;109625;1253;60755;-75
2023/10/06 01:14:11;;;;;;;16.80;9.50;;;;;;;11.31;100.00;101149.56;109605;1253;59896;-75
2023/10/06 01:16:38;;;;;;;16.80;10.70;;;;;;;11.30;100.00;101152.38;109466;1254;73076;-74
2023/10/06 01:21:53;;;;;;;16.30;9.00;;;;;;;11.30;100.00;101148.73;109498;1253;72743;-75
2023/10/06 01:24:24;;;;;;;17.20;9.80;;;;;;;11.30;100.00;101147.15;109474;1252;60495;-74
2023/10/06 01:26:59;;;;;;;28.10;9.60;;;;;;;11.30;100.00;101146.29;109649;1253;58838;-75
2023/10/06 01:29:30;;;;;;;15.60;10.00;;;;;;;11.31;100.00;101144.29;109650;1251;72989;-75
2023/10/06 01:32:03;;;;;;;21.10;9.50;;;;;;;11.31;100.00;101142.19;109618;1252;62430;-75
2023/10/06 01:34:38;;;;;;;22.10;9.80;;;;;;;11.32;100.00;101144.80;109648;1251;72705;-74
2023/10/06 01:37:07;;;;;;;12.80;8.70;;;;;;;11.33;100.00;101139.27;109601;1253;61748;-75
2023/10/06 01:39:35;;;;;;;16.90;8.60;;;;;;;11.35;100.00;101134.95;109615;1253;60245;-74
2023/10/06 01:42:06;;;;;;;13.60;9.30;;;;;;;11.37;100.00;101130.83;109588;1253;71568;-75
2023/10/06 01:44:34;;;;;;;14.70;9.00;;;;;;;11.38;100.00;101127.94;109581;1253;63518;-75
2023/10/06 01:47:05;;;;;;;15.60;9.30;;;;;;;11.39;100.00;101128.98;109576;1253;72627;-74
2023/10/06 01:49:36;;;;;;;15.90;8.90;;;;;;;11.38;100.00;101125.86;109591;1253;60807;-75
2023/10/06 01:52:08;;;;;;;20.20;9.30;;;;;;;11.38;100.00;101127.63;109489;1253;58026;-75
2023/10/06 01:54:36;;;;;;;22.70;9.60;;;;;;;11.37;100.00;101124.55;109602;1252;73407;-75
2023/10/06 01:57:06;;;;;;;16.80;9.70;;;;;;;11.36;100.00;101127.73;109643;1252;63584;-75
2023/10/06 01:59:34;;;;;;;17.20;10.30;;;;;;;11.35;100.00;101125.16;109633;1252;71567;-75
2023/10/06 02:02:02;;;;;;;19.90;9.90;;;;;;;11.32;100.00;101121.48;109556;1253;60482;-76
2023/10/06 02:04:38;;;;;;;25.80;11.10;;;;;;;11.30;100.00;101123.68;109550;1252;59658;-76
2023/10/06 02:07:09;;;;;;;14.40;9.80;;;;;;;11.28;100.00;101121.68;109576;1253;72561;-75
2023/10/06 02:09:37;;;;;;;16.20;9.00;;;;;;;11.26;100.00;101114.83;109513;1252;62772;-75
2023/10/06 02:12:05;;;;;;;20.80;9.50;;;;;;;11.25;100.00;101113.67;109605;1252;72717;-75
2023/10/06 02:14:33;;;;;;;19.60;8.80;;;;;;;11.24;100.00;101114.95;109588;1253;62884;-76
2023/10/06 02:17:05;;;;;;;19.20;9.30;;;;;;;11.23;100.00;101113.41;109616;1252;58850;-74
2023/10/06 02:19:34;;;;;;;19.80;10.30;;;;;;;11.23;100.00;101108.88;109606;1252;73967;-76
2023/10/06 02:22:06;;;;;;;16.70;9.00;;;;;;;11.23;100.00;101106.92;109604;1253;62430;-74
2023/10/06 02:24:33;;;;;;;23.70;10.30;;;;;;;11.22;100.00;101104.90;109459;1252;71417;-74
2023/10/06 02:27:01;;;;;;;19.10;8.70;;;;;;;11.20;100.00;101103.75;109598;1252;61808;-75
2023/10/06 02:29:29;;;;;;;15.90;9.10;;;;;;;11.20;100.00;101102.36;109600;1253;60501;-75
2023/10/06 02:32:06;;;;;;;17.50;9.20;;;;;;;11.20;100.00;101099.92;109563;1251;74996;-75
2023/10/06 02:34:35;;;;;;;19.00;9.60;;;;;;;11.20;100.00;101096.04;109605;1251;63644;-75
2023/10/06 02:37:06;;;;;;;15.60;9.00;;;;;;;11.21;100.00;101091.48;109613;1252;72779;-74
2023/10/06 02:39:43;;;;;;;14.70;8.80;;;;;;;11.22;100.00;101092.31;109602;1252;61760;-75
2023/10/06 02:42:13;;;;;;;17.40;9.80;;;;;;;11.22;100.00;101091.42;109613;1252;59886;-75
2023/10/06 02:44:42;;;;;;;20.90;9.40;;;;;;;11.22;100.00;101090.86;109647;1252;73696;-75
2023/10/06 02:47:09;;;;;;;25.80;11.30;;;;;;;11.24;100.00;101090.24;109626;1253;63492;-75
2023/10/06 02:49:47;;;;;;;19.30;9.60;;;;;;;11.26;100.00;101087.90;109601;1252;71508;-76
2023/10/06 02:52:30;;;;;;;22.30;9.60;;;;;;;11.26;100.00;101088.91;109606;1254;60456;-76
2023/10/06 02:57:26;;;;;;;18.20;9.70;;;;;;;11.30;100.00;101087.79;109609;1252;73364;-76
2023/10/06 02:59:56;;;;;;;15.40;8.80;;;;;;;11.33;100.00;101089.04;109641;1252;62492;-74
2023/10/06 03:02:26;;;;;;;21.30;9.20;;;;;;;11.36;100.00;101085.91;109564;1253;72773;-76
2023/10/06 03:04:55;;;;;;;18.30;9.40;;;;;;;11.39;100.00;101081.89;109574;1252;61773;-74
2023/10/06 03:07:23;;;;;;;23.40;10.70;;;;;;;11.43;100.00;101081.34;109634;1253;60094;-75
2023/10/06 03:09:50;;;;;;;22.70;10.10;;;;;;;11.46;100.00;101080.45;109480;1252;74386;-75
2023/10/06 03:14:56;;;;;;;14.90;9.50;;;;;;;11.51;100.00;101076.84;109479;1254;71341;-74
2023/10/06 03:17:24;;;;;;;17.30;9.40;;;;;;;11.53;100.00;101076.05;109594;1253;60499;-75
2023/10/06 03:22:40;;;;;;;18.60;9.30;;;;;;;11.55;100.00;101075.52;109579;1252;71681;-75
2023/10/06 03:25:17;;;;;;;19.70;10.60;;;;;;;11.56;100.00;101071.98;109634;1252;63545;-75
2023/10/06 03:27:52;;;;;;;16.70;9.90;;;;;;;11.57;100.00;101068.63;109605;1252;71627;-75
2023/10/06 03:30:27;;;;;;;18.30;10.20;;;;;;;11.58;100.00;101070.48;109601;1253;60452;-74
2023/10/06 03:32:57;;;;;;;32.00;11.50;;;;;;;11.58;100.00;101072.41;109570;1253;58784;-74
2023/10/06 03:35:35;;;;;;;14.60;10.00;;;;;;;11.59;100.00;101070.27;109631;1253;72602;-76
2023/10/06 03:46:09;;;;;;;20.20;10.50;;;;;;;11.63;100.00;101060.59;109647;1253;58940;-75
2023/10/06 03:48:38;;;;;;;20.80;11.30;;;;;;;11.64;100.00;101061.73;109580;1252;74373;-75
2023/10/06 03:51:05;;;;;;;21.30;10.80;;;;;;;11.67;100.00;101060.38;109627;1253;62412;-75
2023/10/06 03:53:33;;;;;;;27.60;11.90;;;;;;;11.69;100.00;101054.77;109587;1252;73148;-74
2023/10/06 03:56:01;;;;;;;24.00;10.70;;;;;;;11.72;100.00;101053.92;109595;1252;59836;-75
2023/10/06 03:58:28;;;;;;;23.60;10.70;;;;;;;11.76;100.00;101053.90;109623;1252;58789;-76
2023/10/06 04:00:58;;;;;;;20.50;10.10;;;;;;;11.78;100.00;101050.59;109489;1253;72704;-74
2023/10/06 04:03:26;;;;;;;18.00;10.80;;;;;;;11.80;100.00;101045.91;109640;1252;63786;-74
2023/10/06 04:05:54;;;;;;;23.40;10.60;;;;;;;11.82;100.00;101043.84;109582;1252;72744;-75
2023/10/06 04:08:21;;;;;;;24.40;10.00;;;;;;;11.85;100.00;101040.94;109585;1252;60381;-76
2023/10/06 04:11:00;;;;;;;22.60;10.30;;;;;;;11.87;100.00;101041.15;109629;1253;59039;-76
2023/10/06 04:13:28;;;;;;;18.90;10.60;;;;;;;11.90;100.00;101039.46;109626;1252;72613;-74
2023/10/06 04:15:57;;;;;;;23.50;10.10;;;;;;;11.91;100.00;101040.21;109676;1252;63482;-74
2023/10/06 04:18:24;;;;;;;29.60;12.10;;;;;;;11.94;100.00;101041.44;109576;1252;72032;-75
2023/10/06 04:20:53;;;;;;;20.60;10.60;;;;;;;11.97;100.00;101038.48;109562;1253;60496;-75
2023/10/06 04:23:23;;;;;;;23.70;12.50;;;;;;;12.00;100.00;101039.15;109596;1252;58798;-75
2023/10/06 04:25:55;;;;;;;30.30;13.20;;;;;;;12.03;100.00;101043.69;109605;1253;72892;-73
2023/10/06 04:28:24;;;;;;;27.90;13.30;;;;;;;12.07;100.00;101034.41;109608;1252;63638;-74
2023/10/06 04:30:54;;;;;;;22.70;11.80;;;;;;;12.09;100.00;101035.50;109603;1253;72806;-75
2023/10/06 04:33:25;;;;;;;24.30;11.30;;;;;;;12.12;100.00;101034.98;109587;1252;60674;-74
2023/10/06 04:35:56;;;;;;;22.00;11.40;;;;;;;12.16;100.00;101036.48;109656;1253;60036;-74
2023/10/06 04:38:23;;;;;;;24.70;10.90;;;;;;;12.19;100.00;101035.58;109558;1252;73864;-74
2023/10/06 04:40:55;;;;;;;23.30;12.30;;;;;;;12.23;100.00;101037.08;109612;1252;62452;-75
2023/10/06 04:43:23;;;;;;;25.40;11.20;;;;;;;12.27;100.00;101031.77;109640;1253;72518;-75
2023/10/06 04:45:51;;;;;;;24.40;11.80;;;;;;;12.31;100.00;101026.98;109562;1252;61713;-74
2023/10/06 04:48:18;;;;;;;24.40;10.40;;;;;;;12.34;100.00;101023.29;109621;1252;59093;-74
2023/10/06 04:50:46;;;;;;;21.80;11.00;;;;;;;12.39;100.00;101025.60;109678;1252;73101;-77
2023/10/06 04:53:16;;;;;;;22.00;11.00;;;;;;;12.43;100.00;101028.52;109659;1252;62495;-74
2023/10/06 04:55:44;;;;;;;21.70;11.00;;;;;;;12.49;100.00;101031.33;109599;1252;72734;-74
2023/10/06 04:58:14;;;;;;;22.30;10.60;;;;;;;12.54;100.00;101031.18;109586;1252;60450;-73
2023/10/06 05:00:42;;;;;;;30.10;12.00;;;;;;;12.59;100.00;101025.95;109617;1252;60541;-74
2023/10/06 05:03:11;;;;;;;22.90;10.60;;;;;;;12.63;100.00;101032.52;109594;1252;72844;-75
2023/10/06 05:05:40;;;;;;;20.00;9.80;;;;;;;12.68;100.00;101036.63;109625;1251;62519;-74
2023/10/06 05:08:14;;;;;;;23.00;10.40;;;;;;;12.72;100.00;101041.85;109615;1252;71404;-73
2023/10/06 05:10:42;;;;;;;20.30;10.30;;;;;;;12.77;100.00;101045.53;109533;1253;61756;-75
2023/10/06 05:13:10;;;;;;;21.80;10.00;;;;;;;12.82;100.00;101046.98;109646;1252;59952;-74
2023/10/06 05:15:41;;;;;;;24.30;9.30;;;;;;;12.89;100.00;101045.71;109569;1252;72691;-73
2023/10/06 05:18:15;;;;;;;30.50;11.20;;;;;;;12.97;100.00;101047.81;109670;1252;62412;-75
2023/10/06 05:20:43;;;;;;;21.10;9.60;;;;;;;13.07;100.00;101046.49;109590;1252;72640;-75
2023/10/06 05:23:14;;;;;;;20.60;9.90;;;;;;;13.18;100.00;101041.91;109568;1252;61767;-74
2023/10/06 05:25:44;;;;;;;22.40;10.00;;;;;;;13.31;100.00;101037.77;109587;1253;59032;-75
2023/10/06 05:28:22;;;;;;;15.10;9.20;;;;;;;13.45;100.00;101034.91;109659;1252;73683;-75
2023/10/06 05:30:58;;;;;;;19.80;10.20;;;;;;;13.60;100.00;101032.38;109701;1253;62294;-74
2023/10/06 05:33:26;;;;;;;20.20;9.20;;;;;;;13.71;100.00;101030.77;109602;1252;71324;-74
2023/10/06 05:35:53;;;;;;;21.70;8.80;;;;;;;13.82;100.00;101030.05;109587;1252;60456;-76
2023/10/06 05:38:21;;;;;;;22.30;9.00;;;;;;;13.91;100.00;101029.63;109598;1253;58794;-74
2023/10/06 05:40:49;;;;;;;19.70;8.80;;;;;;;13.98;99.99;101030.02;109622;1252;73411;-73
2023/10/06 05:43:16;;;;;;;15.30;9.00;;;;;;;14.07;99.61;101026.21;109602;1253;62762;-73
2023/10/06 05:45:51;;;;;;;18.00;8.50;;;;;;;14.18;99.06;101027.60;109595;1253;72761;-74
2023/10/06 05:48:22;;;;;;;12.30;7.70;;;;;;;14.29;98.68;101027.91;109636;1251;58773;-74
2023/10/06 05:50:52;;;;;;;22.10;9.40;;;;;;;14.45;98.43;101029.96;109648;1253;60541;-74
2023/10/06 05:53:22;;;;;;;19.60;7.80;;;;;;;14.64;97.59;101031.48;109631;1252;73897;-76
2023/10/06 05:55:52;;;;;;;19.30;9.20;;;;;;;14.81;96.17;101033.60;109627;1252;64476;-75
2023/10/06 05:58:19;;;;;;;15.40;8.90;;;;;;;14.92;95.15;101037.03;109598;1253;72691;-76
2023/10/06 06:00:50;;;;;;;17.60;8.80;;;;;;;14.99;94.75;101033.05;109619;1252;59108;-75
2023/10/06 06:03:20;;;;;;;20.30;8.90;;;;;;;15.04;94.48;101028.44;109609;1252;60141;-75
2023/10/06 06:05:49;;;;;;;21.30;8.90;;;;;;;15.12;94.13;101028.25;109498;1252;74635;-75
2023/10/06 06:08:16;;;;;;;18.10;8.00;;;;;;;15.20;94.10;101024.48;109517;1252;62713;-75
2023/10/06 06:10:45;;;;;;;11.70;7.20;;;;;;;15.29;94.14;101025.18;109586;1252;72524;-74
2023/10/06 06:13:17;;;;;;;15.30;6.80;;;;;;;15.41;93.88;101024.84;109589;1253;59077;-75
2023/10/06 06:15:48;;;;;;;14.50;6.60;;;;;;;15.57;93.26;101024.41;109578;1252;60020;-74
2023/10/06 06:18:16;;;;;;;13.30;6.90;;;;;;;15.69;92.58;101024.17;109598;1252;74021;-74
2023/10/06 06:20:45;;;;;;;15.80;6.90;;;;;;;15.81;92.35;101021.23;109486;1253;62459;-76
2023/10/06 06:23:15;;;;;;;15.30;6.70;;;;;;;15.89;91.77;101017.08;109601;1252;72629;-75
2023/10/06 06:25:46;;;;;;;18.90;6.20;;;;;;;15.95;90.87;101015.20;109605;1252;58840;-76
2023/10/06 06:28:14;;;;;;;11.20;6.10;;;;;;;16.00;90.03;101013.40;109594;1253;58978;-76
2023/10/06 06:30:42;;;;;;;9.40;5.90;;;;;;;16.05;89.40;101008.09;109667;1252;73947;-75
2023/10/06 06:33:12;;;;;;;27.50;6.80;;;;;;;16.11;89.05;101007.98;109604;1253;62487;-75
2023/10/06 06:35:42;;;;;;;10.50;5.60;;;;;;;16.19;88.50;101002.96;109607;1252;72776;-76
2023/10/06 06:38:12;;;;;;;22.80;7.10;;;;;;;16.32;87.69;101003.89;109585;1254;58844;-75
2023/10/06 06:40:40;;;;;;;22.30;6.60;;;;;;;16.50;86.46;101001.60;109585;1253;58982;-74
2023/10/06 06:43:09;;;;;;;14.50;7.40;;;;;;;16.67;85.03;101001.34;109592;1254;72526;-77
2023/10/06 06:45:40;;;;;;;20.20;8.30;;;;;;;16.82;83.43;101001.41;109588;1252;64457;-74
2023/10/06 06:48:12;;;;;;;13.00;7.80;;;;;;;16.99;82.29;100998.23;109627;1253;71735;-76
2023/10/06 06:50:42;;;;;;;14.70;7.80;;;;;;;17.27;80.17;101001.45;109661;1253;58870;-74
2023/10/06 06:53:10;;;;;;;19.10;7.80;;;;;;;17.60;78.16;100996.42;109640;1253;60006;-73
2023/10/06 06:55:38;;;;;;;12.10;6.80;;;;;;;17.89;74.78;100994.89;109586;1254;73085;-74
2023/10/06 06:58:10;;;;;;;14.50;6.90;;;;;;;18.15;72.44;100989.27;109613;1253;61371;-74
2023/10/06 07:00:39;;;;;;;10.10;6.80;;;;;;;18.38;70.27;100981.20;109639;1252;71181;-75
2023/10/06 07:03:07;;;;;;;15.90;6.90;;;;;;;18.54;68.41;100977.77;109632;1252;60184;-74
2023/10/06 07:05:35;;;;;;;16.60;7.30;;;;;;;18.69;66.75;100973.65;109650;1252;61473;-75
2023/10/06 07:08:06;;;;;;;16.80;6.60;;;;;;;18.97;66.14;100965.88;109603;1252;76118;-74
2023/10/06 07:10:38;;;;;;;15.70;8.10;;;;;;;19.50;62.46;100964.45;109638;1256;63576;-74
2023/10/06 07:13:06;;;;;;;12.80;7.20;;;;;;;20.08;58.84;100963.52;109610;1252;72660;-75
2023/10/06 07:15:35;;;;;;;16.30;7.00;;;;;;;20.54;56.21;100957.29;109590;1253;60409;-75
2023/10/06 07:18:03;;;;;;;13.80;6.90;;;;;;;20.88;54.24;100962.58;109650;1254;60093;-75
2023/10/06 07:20:32;;;;;;;16.70;6.80;;;;;;;21.05;51.64;100959.91;109618;1253;73031;-74
2023/10/06 07:23:04;;;;;;;12.70;6.80;;;;;;;21.03;50.85;100959.33;109620;1253;63481;-74
2023/10/06 07:25:32;;;;;;;15.40;7.20;;;;;;;20.98;50.82;100967.29;109642;1252;71792;-74
2023/10/06 07:28:02;;;;;;;15.70;6.90;;;;;;;20.98;51.25;100971.69;109577;1252;59158;-75
2023/10/06 07:30:34;;;;;;;14.40;6.90;;;;;;;20.97;51.18;100970.67;109655;1253;58771;-74
2023/10/06 07:33:05;;;;;;;19.10;6.50;;;;;;;21.03;50.95;100972.80;109615;1252;73836;-75
2023/10/06 07:35:51;;;;;;;10.60;6.80;;;;;;;21.12;51.24;100968.21;109506;1252;62467;-74
2023/10/06 07:38:18;;;;;;;17.20;6.70;;;;;;;21.24;51.34;100969.97;109593;1253;72703;-75
2023/10/06 07:40:46;;;;;;;11.00;5.40;;;;;;;21.27;50.38;100962.05;109577;1253;58802;-75
2023/10/06 07:43:15;;;;;;;13.00;5.00;;;;;;;21.22;50.30;100960.98;109614;1254;60507;-75
2023/10/06 07:45:43;;;;;;;15.40;6.10;;;;;;;21.16;50.55;100963.52;109611;1253;73932;-75
2023/10/06 07:48:11;;;;;;;11.50;5.90;;;;;;;21.08;50.74;100961.83;109604;1254;62419;-74
2023/10/06 07:50:38;;;;;;;10.00;5.90;;;;;;;20.98;50.84;100959.58;109618;1253;72720;-75
2023/10/06 07:53:06;;;;;;;13.90;6.40;;;;;;;20.94;51.42;100957.04;109564;1252;60301;-75
2023/10/06 07:55:34;;;;;;;10.40;5.30;;;;;;;21.04;50.95;100953.27;109640;1252;60183;-75
2023/10/06 07:58:05;;;;;;;12.10;6.50;;;;;;;21.22;50.00;100948.15;109646;1252;73465;-74
2023/10/06 08:00:38;;;;;;;9.20;6.20;;;;;;;21.47;49.49;100946.36;109621;1252;62444;-75
2023/10/06 08:03:06;;;;;;;8.80;5.80;;;;;;;21.91;48.37;100947.04;109584;1252;71437;-74
2023/10/06 08:05:34;;;;;;;9.80;5.40;;;;;;;22.44;47.47;100946.05;109598;1256;60136;-76
2023/10/06 08:08:04;;;;;;;13.50;6.40;;;;;;;23.00;46.08;100945.97;109619;1252;60569;-74
2023/10/06 08:10:31;;;;;;;12.80;6.50;;;;;;;23.41;44.10;100945.67;109655;1254;72604;-75
2023/10/06 08:13:03;;;;;;;11.00;6.20;;;;;;;23.64;42.23;100946.95;109625;1252;62677;-74
2023/10/06 08:15:32;;;;;;;11.20;5.70;;;;;;;23.74;41.60;100942.93;109608;1252;70964;-73
2023/10/06 08:18:00;;;;;;;7.60;5.30;;;;;;;23.75;41.04;100946.98;109583;1252;60034;-72
2023/10/06 08:20:29;;;;;;;9.80;5.40;;;;;;;23.81;40.83;100950.07;109677;1252;60272;-74
2023/10/06 08:22:58;;;;;;;10.10;4.60;;;;;;;23.97;40.91;100951.67;109616;1252;74065;-76
2023/10/06 08:25:25;;;;;;;13.70;5.00;;;;;;;24.34;40.37;100946.11;109616;1253;62554;-74
2023/10/06 08:27:54;;;;;;;8.60;5.00;;;;;;;24.79;39.10;100943.33;109573;1252;71371;-74
2023/10/06 08:30:22;;;;;;;9.90;4.70;;;;;;;25.20;38.05;100950.33;109628;1252;58836;-75
2023/10/06 08:32:54;;;;;;;9.60;5.20;;;;;;;25.62;37.43;100943.09;109626;1252;59491;-75
2023/10/06 08:35:22;;;;;;;17.10;5.60;;;;;;;26.15;36.37;100935.36;109607;1252;72968;-75
2023/10/06 08:37:51;;;;;;;13.10;4.40;;;;;;;26.65;34.84;100938.77;109614;1254;63351;-74
2023/10/06 08:40:22;;;;;;;18.60;6.50;;;;;;;26.88;33.83;100933.98;109628;1252;72714;-74
2023/10/06 08:42:52;;;;;;;8.70;5.30;;;;;;;27.07;33.38;100932.54;109579;1254;58845;-74
2023/10/06 08:45:21;;;;;;;13.80;5.10;;;;;;;27.09;33.30;100929.32;109618;1254;58791;-73
2023/10/06 08:47:59;;;;;;;6.40;5.20;;;;;;;26.97;33.15;100931.86;109656;1252;72626;-75
2023/10/06 08:50:30;;;;;;;18.00;6.00;;;;;;;26.84;33.28;100933.32;109634;1252;63547;-73
2023/10/06 08:53:00;;;;;;;14.60;5.90;;;;;;;26.62;33.51;100934.23;109646;1252;71843;-75
2023/10/06 08:55:29;;;;;;;17.90;6.00;;;;;;;26.36;33.59;100926.98;109583;1252;60207;-74
2023/10/06 08:57:59;;;;;;;9.70;6.40;;;;;;;26.01;33.89;100923.89;109637;1252;60152;-77
2023/10/06 09:00:34;;;;;;;11.50;5.60;;;;;;;25.75;34.35;100926.91;109615;1254;73860;-75
2023/10/06 09:03:09;;;;;;;12.20;5.10;;;;;;;25.62;34.89;100921.70;109648;1252;63759;-74
2023/10/06 09:05:38;;;;;;;14.60;5.30;;;;;;;25.71;35.18;100919.38;109554;1256;71484;-75
2023/10/06 09:08:10;;;;;;;13.10;5.90;;;;;;;25.91;35.29;100907.78;109615;1252;60056;-73
2023/10/06 09:10:40;;;;;;;13.30;5.50;;;;;;;26.18;34.99;100912.70;109621;1252;60877;-76
2023/10/06 09:13:11;;;;;;;9.50;5.30;;;;;;;26.52;34.24;100916.55;109577;1252;74817;-76
2023/10/06 09:15:43;;;;;;;30.50;7.10;;;;;;;26.83;33.71;100925.89;109618;1252;62284;-75
2023/10/06 09:18:20;;;;;;;11.10;5.40;;;;;;;27.00;32.97;100925.55;109624;1252;72948;-75
2023/10/06 09:20:48;;;;;;;13.80;5.90;;;;;;;26.90;32.63;100924.70;109636;1254;59782;-75
2023/10/06 09:23:33;;;;;;;14.40;5.30;;;;;;;26.76;32.80;100926.77;109638;1252;60890;-76
2023/10/06 09:26:01;;;;;;;10.60;6.60;;;;;;;26.77;32.77;100924.70;109604;1253;74540;-77
2023/10/06 09:28:30;;;;;;;14.00;5.90;;;;;;;26.83;32.86;100923.89;109637;1252;64135;-76
2023/10/06 09:31:05;;;;;;;9.60;5.20;;;;;;;26.88;32.89;100925.85;109579;1253;75070;-75
2023/10/06 09:33:37;;;;;;;12.10;5.30;;;;;;;27.03;32.69;100921.36;109600;1252;58613;-77
2023/10/06 09:36:11;;;;;;;10.40;5.00;;;;;;;27.18;32.58;100918.14;109454;1252;204619;-74
2023/10/06 09:40:46;;;;;;;13.60;5.40;;;;;;;27.69;32.34;100923.98;102544;1292;615062;-78
2023/10/06 09:43:17;;;;;;;9.00;4.80;;;;;;;28.04;31.69;100924.51;104884;1266;60400;-78
2023/10/06 09:45:48;;;;;;;8.40;4.40;;;;;;;28.26;30.54;100925.52;105011;1264;60281;-75
2023/10/06 09:48:17;;;;;;;16.00;3.80;;;;;;;28.27;30.26;100922.61;105249;1256;72099;-77
2023/10/06 09:50:46;;;;;;;7.80;4.40;;;;;;;28.14;30.24;100919.11;105360;1262;63997;-76
2023/10/06 09:53:13;;;;;;;11.70;4.10;;;;;;;27.96;30.15;100915.39;105458;1256;230156;-76
2023/10/06 09:55:42;;;;;;;7.10;3.60;;;;;;;27.81;30.53;100914.93;105696;1260;60185;-75
2023/10/06 09:58:09;;;;;;;8.60;4.60;;;;;;;27.75;30.49;100912.15;105671;1254;61361;-74
2023/10/06 10:00:40;;;;;;;12.40;5.10;;;;;;;27.67;30.72;100911.45;105635;1253;73078;-77
2023/10/06 10:03:08;;;;;;;33.60;6.90;;;;;;;27.66;30.99;100912.23;105739;1253;61934;-75
2023/10/06 10:05:38;;;;;;;19.00;5.50;;;;;;;27.60;30.92;100911.69;105722;1256;72658;-76
2023/10/06 10:08:06;;;;;;;6.30;4.00;;;;;;;27.54;31.03;100915.26;105765;1257;59647;-77
2023/10/06 10:10:35;;;;;;;6.80;3.60;;;;;;;27.52;31.49;100908.77;105847;1254;60449;-75
2023/10/06 10:13:31;;;;;;;8.20;4.50;;;;;;;27.64;32.00;100906.13;105639;1257;73136;-75
2023/10/06 10:15:58;;;;;;;28.60;4.80;;;;;;;27.99;31.47;100903.29;105697;1257;64086;-77
2023/10/06 10:18:47;;;;;;;6.30;4.10;;;;;;;28.08;30.77;100899.34;105645;1256;71990;-78
2023/10/06 10:21:13;;;;;;;5.40;3.60;;;;;;;27.94;31.00;100893.42;105582;1258;60305;-77
2023/10/06 10:23:40;;;;;;;8.00;3.00;;;;;;;28.04;30.68;100894.22;105820;1250;59648;-77
2023/10/06 10:26:18;;;;;;;11.00;3.70;;;;;;;28.02;30.43;100892.14;105744;1257;71377;-79
2023/10/06 10:29:10;;;;;;;5.90;3.10;;;;;;;27.82;29.50;100893.80;106010;1253;63321;-75
2023/10/06 10:31:42;;;;;;;6.40;2.70;;;;;;;27.37;29.57;100894.56;105909;1250;72601;-76
2023/10/06 10:34:33;;;;;;;7.90;3.50;;;;;;;27.14;30.20;100891.31;105797;1254;60819;-77
2023/10/06 10:37:04;;;;;;;;;;;;;;;27.19;30.23;100894.09;105909;1254;59638;-78
2023/10/06 10:39:59;;;;;;;17.20;3.90;;;;;;;27.21;29.71;100892.27;106001;1250;73043;-75
2023/10/06 10:42:39;;;;;;;8.40;3.70;;;;;;;27.07;29.68;100892.19;105884;1254;63902;-76
2023/10/06 10:45:34;;;;;;;6.50;3.20;;;;;;;27.00;29.83;100882.66;105809;1254;73051;-78
2023/10/06 10:48:14;;;;;;;10.50;3.20;;;;;;;26.89;30.04;100880.30;106061;1254;60400;-74
2023/10/06 10:51:05;;;;;;;4.90;3.10;;;;;;;26.60;29.52;100879.90;106054;1250;60366;-76
2023/10/06 10:53:41;;;;;;;8.90;3.90;;;;;;;26.21;30.12;100878.15;105970;1250;74945;-75
2023/10/06 10:56:18;;;;;;;8.80;2.90;;;;;;;26.09;30.55;100880.02;105922;1254;63616;-75
2023/10/06 10:58:47;;;;;;;6.10;2.80;;;;;;;26.12;31.03;100890.77;105882;1254;73638;-74
2023/10/06 11:01:31;;;;;;;8.90;3.50;;;;;;;26.17;31.56;100886.63;105925;1254;59733;-76
2023/10/06 11:04:21;;;;;;;3.40;2.70;;;;;;;26.32;31.62;100889.70;105936;1250;60602;-77
2023/10/06 11:06:49;;;;;;;5.10;2.20;;;;;;;26.36;32.01;100888.92;105886;1250;72202;-77
2023/10/06 11:09:40;;;;;;;7.50;3.00;;;;;;;26.34;32.10;100889.48;106001;1254;64442;-78
2023/10/06 11:12:16;;;;;;;7.20;2.20;;;;;;;26.15;31.98;100888.17;106017;1255;72810;-77
2023/10/06 11:14:49;;;;;;;9.70;3.00;;;;;;;25.69;32.70;100889.77;105802;1252;59618;-78
2023/10/06 11:17:24;;;;;;;16.90;2.20;;;;;;;25.37;33.10;100895.97;105872;1250;59632;-77
2023/10/06 11:20:46;;;;;;;6.50;1.50;;;;;;;25.03;33.20;100898.85;105982;1254;71995;-75
2023/10/06 11:23:05;;;;;;;7.50;1.80;;;;;;;24.56;33.47;100896.42;105942;1254;63875;-75
2023/10/06 11:25:36;;;;;;;4.00;1.70;;;;;;;24.18;33.99;100891.77;105961;1256;72697;-74
2023/10/06 11:28:08;;;;;;;8.50;1.70;;;;;;;23.84;33.99;100891.29;105979;1255;60420;-75
2023/10/06 11:30:36;;;;;;;5.60;1.40;;;;;;;23.48;34.55;100898.81;106134;1250;60325;-76
2023/10/06 11:33:08;;;;;;;6.10;1.50;;;;;;;23.14;35.01;100898.10;106084;1250;73037;-75
2023/10/06 11:35:37;;;;;;;7.20;1.30;;;;;;;22.82;35.40;100894.65;106125;1254;63928;-74
2023/10/06 11:38:11;;;;;;;3.30;1.40;;;;;;;22.58;35.88;100903.95;106387;1255;71391;-75
2023/10/06 11:40:38;;;;;;;4.20;1.50;;;;;;;22.34;36.41;100905.73;106074;1254;61336;-75
2023/10/06 11:43:12;;;;;;;4.60;1.70;;;;;;;22.08;36.43;100909.77;105799;1250;60672;-77